sensor_id;sensor_type;location;lat;lon;timestamp;pressure;altitude;pressure_sealevel;temperature;humidity
38616;BME280;24370;51.986;4.666;2022-12-07T00:01:22;101957.41;;;13.00;50.43
38616;BME280;24370;51.986;4.666;2022-12-07T00:03:49;101963.34;;;13.61;48.87
38616;BME280;24370;51.986;4.666;2022-12-07T00:06:17;101966.53;;;14.19;47.61
38616;BME280;24370;51.986;4.666;2022-12-07T00:08:44;101949.25;;;13.78;47.94
38616;BME280;24370;51.986;4.666;2022-12-07T00:11:14;101952.66;;;13.95;47.57
38616;BME280;24370;51.986;4.666;2022-12-07T00:13:41;101954.44;;;13.90;47.13
38616;BME280;24370;51.986;4.666;2022-12-07T00:16:13;101947.19;;;14.29;46.71
38616;BME280;24370;51.986;4.666;2022-12-07T00:18:40;101954.06;;;14.46;47.23
38616;BME280;24370;51.986;4.666;2022-12-07T00:21:09;101961.53;;;13.76;49.52
38616;BME280;24370;51.986;4.666;2022-12-07T00:23:35;101965.09;;;13.65;49.95
38616;BME280;24370;51.986;4.666;2022-12-07T00:26:10;101940.72;;;13.26;50.32
38616;BME280;24370;51.986;4.666;2022-12-07T00:28:36;101925.84;;;14.66;47.43
38616;BME280;24370;51.986;4.666;2022-12-07T00:31:04;101923.44;;;14.37;46.95
38616;BME280;24370;51.986;4.666;2022-12-07T00:33:30;101921.81;;;14.23;47.55
38616;BME280;24370;51.986;4.666;2022-12-07T00:35:57;101928.44;;;13.31;49.40
38616;BME280;24370;51.986;4.666;2022-12-07T00:38:23;101923.19;;;13.31;49.55
38616;BME280;24370;51.986;4.666;2022-12-07T00:41:16;101914.28;;;13.69;50.01
38616;BME280;24370;51.986;4.666;2022-12-07T00:43:43;101920.00;;;14.30;47.62
38616;BME280;24370;51.986;4.666;2022-12-07T00:46:08;101917.44;;;14.22;47.78
38616;BME280;24370;51.986;4.666;2022-12-07T00:48:34;101920.09;;;14.15;47.37
38616;BME280;24370;51.986;4.666;2022-12-07T00:51:00;101919.44;;;13.88;48.46
38616;BME280;24370;51.986;4.666;2022-12-07T00:53:26;101924.91;;;13.51;48.80
38616;BME280;24370;51.986;4.666;2022-12-07T00:55:51;101917.28;;;14.39;47.46
38616;BME280;24370;51.986;4.666;2022-12-07T00:58:18;101920.91;;;14.26;48.11
38616;BME280;24370;51.986;4.666;2022-12-07T01:00:43;101915.38;;;13.20;49.44
38616;BME280;24370;51.986;4.666;2022-12-07T01:03:10;101906.88;;;14.24;49.40
38616;BME280;24370;51.986;4.666;2022-12-07T01:05:36;101915.34;;;14.63;47.76
38616;BME280;24370;51.986;4.666;2022-12-07T01:08:02;101938.81;;;13.68;47.94
38616;BME280;24370;51.986;4.666;2022-12-07T01:10:27;101943.28;;;13.49;49.17
38616;BME280;24370;51.986;4.666;2022-12-07T01:12:53;101940.75;;;13.23;50.99
38616;BME280;24370;51.986;4.666;2022-12-07T01:15:19;101945.94;;;13.29;51.31
38616;BME280;24370;51.986;4.666;2022-12-07T01:17:44;101946.81;;;13.33;51.54
38616;BME280;24370;51.986;4.666;2022-12-07T01:20:10;101941.66;;;12.93;52.12
38616;BME280;24370;51.986;4.666;2022-12-07T01:22:37;101926.88;;;12.68;49.49
38616;BME280;24370;51.986;4.666;2022-12-07T01:25:04;101907.06;;;13.99;47.06
38616;BME280;24370;51.986;4.666;2022-12-07T01:27:29;101923.72;;;14.00;46.31
38616;BME280;24370;51.986;4.666;2022-12-07T01:29:55;101913.13;;;14.14;46.40
38616;BME280;24370;51.986;4.666;2022-12-07T01:32:20;101914.25;;;14.84;44.86
38616;BME280;24370;51.986;4.666;2022-12-07T01:34:48;101928.47;;;14.62;46.03
38616;BME280;24370;51.986;4.666;2022-12-07T01:37:13;101925.59;;;14.91;45.19
38616;BME280;24370;51.986;4.666;2022-12-07T01:39:39;101925.25;;;14.32;46.23
38616;BME280;24370;51.986;4.666;2022-12-07T01:42:04;101935.66;;;14.41;46.93
38616;BME280;24370;51.986;4.666;2022-12-07T01:44:30;101932.81;;;13.42;48.72
38616;BME280;24370;51.986;4.666;2022-12-07T01:46:59;101925.53;;;13.90;49.42
38616;BME280;24370;51.986;4.666;2022-12-07T01:49:43;101920.25;;;13.95;48.49
38616;BME280;24370;51.986;4.666;2022-12-07T01:54:36;101929.31;;;14.68;46.14
38616;BME280;24370;51.986;4.666;2022-12-07T01:57:03;101927.41;;;14.86;46.04
38616;BME280;24370;51.986;4.666;2022-12-07T01:59:29;101929.22;;;14.78;46.30
38616;BME280;24370;51.986;4.666;2022-12-07T02:01:55;101925.94;;;14.54;47.42
38616;BME280;24370;51.986;4.666;2022-12-07T02:04:21;101924.66;;;13.91;47.08
38616;BME280;24370;51.986;4.666;2022-12-07T02:06:47;101924.66;;;13.91;47.75
38616;BME280;24370;51.986;4.666;2022-12-07T02:09:12;101926.28;;;14.14;47.44
38616;BME280;24370;51.986;4.666;2022-12-07T02:11:38;101925.53;;;13.95;47.54
38616;BME280;24370;51.986;4.666;2022-12-07T02:14:05;101924.41;;;14.27;47.27
38616;BME280;24370;51.986;4.666;2022-12-07T02:27:54;101905.94;;;14.36;45.50
38616;BME280;24370;51.986;4.666;2022-12-07T02:30:22;101905.66;;;13.43;47.30
38616;BME280;24370;51.986;4.666;2022-12-07T02:33:03;101905.31;;;13.98;48.42
38616;BME280;24370;51.986;4.666;2022-12-07T02:35:41;101906.97;;;14.15;47.57
38616;BME280;24370;51.986;4.666;2022-12-07T02:38:16;101908.88;;;13.91;47.89
38616;BME280;24370;51.986;4.666;2022-12-07T02:40:55;101905.69;;;14.65;46.75
38616;BME280;24370;51.986;4.666;2022-12-07T02:43:27;101915.03;;;14.94;45.57
38616;BME280;24370;51.986;4.666;2022-12-07T02:45:57;101914.00;;;14.13;46.25
38616;BME280;24370;51.986;4.666;2022-12-07T02:48:26;101916.06;;;13.61;48.36
38616;BME280;24370;51.986;4.666;2022-12-07T02:50:53;101906.88;;;14.24;47.54
38616;BME280;24370;51.986;4.666;2022-12-07T02:53:48;101924.13;;;14.59;48.03
38616;BME280;24370;51.986;4.666;2022-12-07T02:59:30;101900.16;;;13.86;49.21
38616;BME280;24370;51.986;4.666;2022-12-07T03:04:47;101909.94;;;13.64;49.87
38616;BME280;24370;51.986;4.666;2022-12-07T03:13:09;101889.44;;;14.17;48.54
38616;BME280;24370;51.986;4.666;2022-12-07T03:15:47;101895.28;;;14.50;47.05
38616;BME280;24370;51.986;4.666;2022-12-07T03:18:18;101905.75;;;14.54;46.43
38616;BME280;24370;51.986;4.666;2022-12-07T03:20:46;101906.56;;;13.37;48.59
38616;BME280;24370;51.986;4.666;2022-12-07T03:23:16;101905.47;;;13.80;47.68
38616;BME280;24370;51.986;4.666;2022-12-07T03:25:47;101900.44;;;13.36;48.72
38616;BME280;24370;51.986;4.666;2022-12-07T03:28:16;101900.41;;;13.43;48.36
38616;BME280;24370;51.986;4.666;2022-12-07T03:30:52;101908.94;;;13.82;47.98
38616;BME280;24370;51.986;4.666;2022-12-07T03:33:32;101905.69;;;13.30;48.56
38616;BME280;24370;51.986;4.666;2022-12-07T03:36:05;101896.75;;;13.71;48.03
38616;BME280;24370;51.986;4.666;2022-12-07T03:38:38;101901.66;;;14.21;47.60
38616;BME280;24370;51.986;4.666;2022-12-07T03:41:11;101896.31;;;14.33;46.66
38616;BME280;24370;51.986;4.666;2022-12-07T03:43:37;101893.47;;;14.52;47.25
38616;BME280;24370;51.986;4.666;2022-12-07T03:48:59;101890.94;;;14.46;46.71
38616;BME280;24370;51.986;4.666;2022-12-07T03:51:33;101890.19;;;14.28;47.11
38616;BME280;24370;51.986;4.666;2022-12-07T03:57:27;101879.94;;;13.97;47.20
38616;BME280;24370;51.986;4.666;2022-12-07T03:59:55;101882.53;;;14.00;47.31
38616;BME280;24370;51.986;4.666;2022-12-07T04:02:22;101885.72;;;14.39;46.13
38616;BME280;24370;51.986;4.666;2022-12-07T04:04:48;101880.72;;;14.10;47.35
38616;BME280;24370;51.986;4.666;2022-12-07T04:07:14;101882.47;;;14.10;46.50
38616;BME280;24370;51.986;4.666;2022-12-07T04:09:39;101879.03;;;14.01;46.72
38616;BME280;24370;51.986;4.666;2022-12-07T04:12:05;101882.63;;;13.88;46.01
38616;BME280;24370;51.986;4.666;2022-12-07T04:14:30;101882.78;;;13.63;46.65
38616;BME280;24370;51.986;4.666;2022-12-07T04:16:57;101881.97;;;13.53;46.74
38616;BME280;24370;51.986;4.666;2022-12-07T04:19:28;101867.13;;;13.48;46.68
38616;BME280;24370;51.986;4.666;2022-12-07T04:21:55;101875.91;;;13.39;46.54
38616;BME280;24370;51.986;4.666;2022-12-07T04:24:21;101871.56;;;13.29;46.37
38616;BME280;24370;51.986;4.666;2022-12-07T04:26:47;101868.94;;;13.39;46.27
38616;BME280;24370;51.986;4.666;2022-12-07T04:29:13;101877.63;;;13.48;45.66
38616;BME280;24370;51.986;4.666;2022-12-07T04:31:39;101877.69;;;13.29;46.50
38616;BME280;24370;51.986;4.666;2022-12-07T04:34:05;101870.81;;;12.91;47.39
38616;BME280;24370;51.986;4.666;2022-12-07T04:36:32;101870.78;;;13.10;47.16
38616;BME280;24370;51.986;4.666;2022-12-07T04:38:57;101867.19;;;13.29;47.22
38616;BME280;24370;51.986;4.666;2022-12-07T04:41:23;101866.28;;;13.33;47.32
38616;BME280;24370;51.986;4.666;2022-12-07T04:43:56;101868.69;;;13.80;46.75
38616;BME280;24370;51.986;4.666;2022-12-07T04:46:23;101880.09;;;13.71;46.16
38616;BME280;24370;51.986;4.666;2022-12-07T04:48:50;101885.78;;;12.35;48.41
38616;BME280;24370;51.986;4.666;2022-12-07T04:51:19;101893.69;;;12.39;48.74
38616;BME280;24370;51.986;4.666;2022-12-07T04:53:45;101886.69;;;12.23;49.28
38616;BME280;24370;51.986;4.666;2022-12-07T04:56:10;101875.34;;;12.24;49.41
38616;BME280;24370;51.986;4.666;2022-12-07T04:58:36;101874.25;;;13.18;47.27
38616;BME280;24370;51.986;4.666;2022-12-07T05:01:01;101872.41;;;13.32;46.22
38616;BME280;24370;51.986;4.666;2022-12-07T05:03:26;101854.66;;;13.78;46.12
38616;BME280;24370;51.986;4.666;2022-12-07T05:05:52;101856.38;;;13.83;44.92
38616;BME280;24370;51.986;4.666;2022-12-07T05:08:17;101859.09;;;13.74;45.64
38616;BME280;24370;51.986;4.666;2022-12-07T05:10:42;101845.09;;;13.70;46.41
38616;BME280;24370;51.986;4.666;2022-12-07T05:13:08;101847.66;;;13.80;45.98
38616;BME280;24370;51.986;4.666;2022-12-07T05:15:33;101855.44;;;13.94;45.54
38616;BME280;24370;51.986;4.666;2022-12-07T05:17:58;101839.81;;;13.73;45.80
38616;BME280;24370;51.986;4.666;2022-12-07T05:20:24;101839.81;;;13.70;46.08
38616;BME280;24370;51.986;4.666;2022-12-07T05:22:49;101849.69;;;13.28;46.47
38616;BME280;24370;51.986;4.666;2022-12-07T05:25:15;101839.22;;;13.23;46.35
38616;BME280;24370;51.986;4.666;2022-12-07T05:27:40;101842.84;;;12.87;47.00
38616;BME280;24370;51.986;4.666;2022-12-07T05:30:06;101846.34;;;12.89;47.15
38616;BME280;24370;51.986;4.666;2022-12-07T05:32:31;101847.09;;;13.20;45.96
38616;BME280;24370;51.986;4.666;2022-12-07T05:34:57;101852.44;;;12.93;45.99
38616;BME280;24370;51.986;4.666;2022-12-07T05:37:22;101850.66;;;13.05;46.26
38616;BME280;24370;51.986;4.666;2022-12-07T05:39:48;101856.84;;;12.89;47.12
38616;BME280;24370;51.986;4.666;2022-12-07T05:42:13;101840.13;;;13.16;46.41
38616;BME280;24370;51.986;4.666;2022-12-07T05:44:39;101841.94;;;13.06;46.56
38616;BME280;24370;51.986;4.666;2022-12-07T05:47:05;101844.41;;;13.44;45.40
38616;BME280;24370;51.986;4.666;2022-12-07T05:49:31;101842.78;;;13.09;46.15
38616;BME280;24370;51.986;4.666;2022-12-07T05:51:57;101837.25;;;13.61;44.85
38616;BME280;24370;51.986;4.666;2022-12-07T05:54:22;101849.09;;;12.29;46.12
38616;BME280;24370;51.986;4.666;2022-12-07T05:56:47;101854.25;;;11.45;50.13
38616;BME280;24370;51.986;4.666;2022-12-07T05:59:13;101867.16;;;10.99;51.41
38616;BME280;24370;51.986;4.666;2022-12-07T06:02:01;101869.19;;;12.53;48.45
38616;BME280;24370;51.986;4.666;2022-12-07T06:04:30;101862.91;;;13.05;46.71
38616;BME280;24370;51.986;4.666;2022-12-07T06:06:55;101860.25;;;13.11;45.96
38616;BME280;24370;51.986;4.666;2022-12-07T06:09:22;101858.50;;;13.18;45.27
38616;BME280;24370;51.986;4.666;2022-12-07T06:11:48;101851.47;;;13.20;45.47
38616;BME280;24370;51.986;4.666;2022-12-07T06:14:32;101855.03;;;13.05;45.59
38616;BME280;24370;51.986;4.666;2022-12-07T06:16:58;101851.59;;;12.92;46.23
38616;BME280;24370;51.986;4.666;2022-12-07T06:19:23;101843.69;;;13.03;46.35
38616;BME280;24370;51.986;4.666;2022-12-07T06:21:49;101853.31;;;12.99;45.93
38616;BME280;24370;51.986;4.666;2022-12-07T06:24:16;101847.28;;;12.72;45.83
38616;BME280;24370;51.986;4.666;2022-12-07T06:26:41;101852.31;;;13.28;44.89
38616;BME280;24370;51.986;4.666;2022-12-07T06:29:07;101852.47;;;12.96;45.03
38616;BME280;24370;51.986;4.666;2022-12-07T06:31:33;101858.56;;;12.99;44.91
38616;BME280;24370;51.986;4.666;2022-12-07T06:33:59;101852.56;;;12.54;46.50
38616;BME280;24370;51.986;4.666;2022-12-07T06:36:25;101854.34;;;12.38;46.51
38616;BME280;24370;51.986;4.666;2022-12-07T06:38:51;101854.31;;;12.47;46.23
38616;BME280;24370;51.986;4.666;2022-12-07T06:41:16;101849.97;;;12.38;46.30
38616;BME280;24370;51.986;4.666;2022-12-07T06:43:41;101853.47;;;12.37;45.95
38616;BME280;24370;51.986;4.666;2022-12-07T06:46:07;101849.13;;;12.26;46.07
38616;BME280;24370;51.986;4.666;2022-12-07T06:48:32;101845.59;;;11.79;47.21
38616;BME280;24370;51.986;4.666;2022-12-07T06:50:58;101851.72;;;12.19;46.44
38616;BME280;24370;51.986;4.666;2022-12-07T06:53:23;101855.25;;;12.11;46.75
38616;BME280;24370;51.986;4.666;2022-12-07T06:55:49;101856.91;;;12.67;45.86
38616;BME280;24370;51.986;4.666;2022-12-07T06:58:14;101881.44;;;12.01;46.89
38616;BME280;24370;51.986;4.666;2022-12-07T07:00:40;101902.69;;;10.60;51.42
38616;BME280;24370;51.986;4.666;2022-12-07T07:03:05;101888.38;;;11.93;50.13
38616;BME280;24370;51.986;4.666;2022-12-07T07:05:31;101887.53;;;12.02;50.76
38616;BME280;24370;51.986;4.666;2022-12-07T07:07:56;101881.38;;;12.76;49.09
38616;BME280;24370;51.986;4.666;2022-12-07T07:10:21;101868.31;;;12.59;47.76
38616;BME280;24370;51.986;4.666;2022-12-07T07:12:47;101867.06;;;13.55;47.06
38616;BME280;24370;51.986;4.666;2022-12-07T07:15:12;101860.06;;;13.57;46.71
38616;BME280;24370;51.986;4.666;2022-12-07T07:17:38;101859.97;;;13.71;47.12
38616;BME280;24370;51.986;4.666;2022-12-07T07:20:04;101857.19;;;13.93;45.53
38616;BME280;24370;51.986;4.666;2022-12-07T07:22:29;101858.31;;;13.58;46.51
38616;BME280;24370;51.986;4.666;2022-12-07T07:24:55;101859.25;;;13.43;46.16
38616;BME280;24370;51.986;4.666;2022-12-07T07:27:20;101865.44;;;13.31;46.78
38616;BME280;24370;51.986;4.666;2022-12-07T07:29:45;101861.31;;;12.36;48.23
38616;BME280;24370;51.986;4.666;2022-12-07T07:32:11;101862.16;;;12.64;47.45
38616;BME280;24370;51.986;4.666;2022-12-07T07:34:37;101862.09;;;12.83;47.01
38616;BME280;24370;51.986;4.666;2022-12-07T07:37:02;101861.22;;;12.85;46.54
38616;BME280;24370;51.986;4.666;2022-12-07T07:39:28;101861.25;;;12.76;46.66
38616;BME280;24370;51.986;4.666;2022-12-07T07:41:53;101871.78;;;12.58;46.89
38616;BME280;24370;51.986;4.666;2022-12-07T07:44:18;101863.03;;;12.69;46.89
38616;BME280;24370;51.986;4.666;2022-12-07T07:46:44;101863.03;;;12.62;46.32
38616;BME280;24370;51.986;4.666;2022-12-07T07:49:10;101864.78;;;12.64;46.72
38616;BME280;24370;51.986;4.666;2022-12-07T07:51:36;101865.66;;;12.66;46.20
38616;BME280;24370;51.986;4.666;2022-12-07T07:54:02;101867.41;;;12.73;46.83
38616;BME280;24370;51.986;4.666;2022-12-07T07:56:28;101869.09;;;12.90;46.55
38616;BME280;24370;51.986;4.666;2022-12-07T07:58:54;101868.97;;;13.27;45.80
38616;BME280;24370;51.986;4.666;2022-12-07T08:01:19;101881.22;;;13.22;46.08
38616;BME280;24370;51.986;4.666;2022-12-07T08:03:46;101867.28;;;13.07;46.02
38616;BME280;24370;51.986;4.666;2022-12-07T08:06:12;101870.81;;;13.00;45.67
38616;BME280;24370;51.986;4.666;2022-12-07T08:08:37;101878.75;;;12.82;46.31
38616;BME280;24370;51.986;4.666;2022-12-07T08:11:07;101871.78;;;12.68;46.47
38616;BME280;24370;51.986;4.666;2022-12-07T08:13:32;101872.66;;;12.55;46.49
38616;BME280;24370;51.986;4.666;2022-12-07T08:15:58;101872.69;;;12.33;46.38
38616;BME280;24370;51.986;4.666;2022-12-07T08:18:23;101870.91;;;12.62;46.30
38616;BME280;24370;51.986;4.666;2022-12-07T08:20:49;101870.91;;;12.69;46.21
38616;BME280;24370;51.986;4.666;2022-12-07T08:23:14;101872.69;;;12.61;45.97
38616;BME280;24370;51.986;4.666;2022-12-07T08:25:40;101872.69;;;12.52;45.76
38616;BME280;24370;51.986;4.666;2022-12-07T08:28:06;101877.06;;;12.20;47.08
38616;BME280;24370;51.986;4.666;2022-12-07T08:30:31;101876.16;;;11.86;47.10
38616;BME280;24370;51.986;4.666;2022-12-07T08:32:57;101874.44;;;12.25;47.21
38616;BME280;24370;51.986;4.666;2022-12-07T08:35:22;101879.69;;;12.24;46.99
38616;BME280;24370;51.986;4.666;2022-12-07T08:37:48;101886.66;;;12.42;47.50
38616;BME280;24370;51.986;4.666;2022-12-07T08:40:14;101886.69;;;12.26;46.99
38616;BME280;24370;51.986;4.666;2022-12-07T08:42:48;101891.88;;;11.86;48.37
38616;BME280;24370;51.986;4.666;2022-12-07T08:45:16;101901.53;;;12.05;48.67
38616;BME280;24370;51.986;4.666;2022-12-07T08:47:46;101887.50;;;12.64;47.27
38616;BME280;24370;51.986;4.666;2022-12-07T08:50:14;101894.53;;;12.62;46.85
38616;BME280;24370;51.986;4.666;2022-12-07T08:52:40;101887.50;;;12.73;46.83
38616;BME280;24370;51.986;4.666;2022-12-07T08:55:07;101882.28;;;12.54;47.14
38616;BME280;24370;51.986;4.666;2022-12-07T08:57:34;101889.25;;;12.68;47.16
38616;BME280;24370;51.986;4.666;2022-12-07T09:00:01;101880.44;;;13.01;46.24
38616;BME280;24370;51.986;4.666;2022-12-07T09:02:27;101879.66;;;12.50;47.64
38616;BME280;24370;51.986;4.666;2022-12-07T09:04:52;101871.53;;;13.36;46.11
38616;BME280;24370;51.986;4.666;2022-12-07T09:07:18;101871.53;;;13.35;46.08
38616;BME280;24370;51.986;4.666;2022-12-07T09:09:44;101868.94;;;13.30;46.55
38616;BME280;24370;51.986;4.666;2022-12-07T09:12:10;101866.16;;;13.66;46.06
38616;BME280;24370;51.986;4.666;2022-12-07T09:14:35;101874.06;;;13.58;45.94
38616;BME280;24370;51.986;4.666;2022-12-07T09:17:05;101870.59;;;13.56;46.32
38616;BME280;24370;51.986;4.666;2022-12-07T09:19:31;101864.44;;;13.55;46.27
38616;BME280;24370;51.986;4.666;2022-12-07T09:21:56;101859.81;;;13.93;45.73
38616;BME280;24370;51.986;4.666;2022-12-07T09:24:21;101859.81;;;13.93;46.10
38616;BME280;24370;51.986;4.666;2022-12-07T09:26:47;101877.09;;;14.23;46.52
38616;BME280;24370;51.986;4.666;2022-12-07T09:29:13;101885.31;;;13.79;46.40
38616;BME280;24370;51.986;4.666;2022-12-07T09:31:38;101891.44;;;13.84;47.46
38616;BME280;24370;51.986;4.666;2022-12-07T09:34:04;101897.81;;;13.26;47.92
38616;BME280;24370;51.986;4.666;2022-12-07T09:36:31;101887.09;;;13.72;47.36
38616;BME280;24370;51.986;4.666;2022-12-07T09:38:57;101884.91;;;14.34;45.82
38616;BME280;24370;51.986;4.666;2022-12-07T09:41:24;101884.66;;;14.57;45.51
38616;BME280;24370;51.986;4.666;2022-12-07T09:43:51;101887.09;;;14.81;45.20
38616;BME280;24370;51.986;4.666;2022-12-07T09:46:19;101874.97;;;14.67;45.37
38616;BME280;24370;51.986;4.666;2022-12-07T09:48:45;101871.78;;;14.28;45.97
38616;BME280;24370;51.986;4.666;2022-12-07T09:51:21;101868.72;;;14.76;46.24
38616;BME280;24370;51.986;4.666;2022-12-07T09:53:47;101869.41;;;14.95;45.03
38616;BME280;24370;51.986;4.666;2022-12-07T09:56:14;101868.47;;;14.99;45.26
38616;BME280;24370;51.986;4.666;2022-12-07T09:58:40;101869.72;;;14.61;45.37
38616;BME280;24370;51.986;4.666;2022-12-07T10:03:32;101863.97;;;14.19;46.34
38616;BME280;24370;51.986;4.666;2022-12-07T10:05:58;101857.56;;;14.51;45.75
38616;BME280;24370;51.986;4.666;2022-12-07T10:08:24;101855.69;;;14.65;45.32
38616;BME280;24370;51.986;4.666;2022-12-07T10:10:52;101855.47;;;13.90;46.75
38616;BME280;24370;51.986;4.666;2022-12-07T10:13:40;101861.91;;;14.53;45.28
38616;BME280;24370;51.986;4.666;2022-12-07T10:16:06;101853.19;;;13.39;48.83
38616;BME280;24370;51.986;4.666;2022-12-07T10:18:40;101851.06;;;13.91;49.46
38616;BME280;24370;51.986;4.666;2022-12-07T10:21:18;101849.47;;;13.71;49.62
38616;BME280;24370;51.986;4.666;2022-12-07T10:24:27;101854.94;;;13.25;50.33
38616;BME280;24370;51.986;4.666;2022-12-07T10:26:53;101855.03;;;13.02;49.73
38616;BME280;24370;51.986;4.666;2022-12-07T10:29:22;101853.97;;;14.58;47.48
38616;BME280;24370;51.986;4.666;2022-12-07T10:32:01;101854.22;;;14.33;47.79
38616;BME280;24370;51.986;4.666;2022-12-07T10:34:30;101841.53;;;13.81;49.00
38616;BME280;24370;51.986;4.666;2022-12-07T10:39:45;101843.28;;;14.75;47.64
38616;BME280;24370;51.986;4.666;2022-12-07T10:45:07;101834.31;;;14.93;47.03
38616;BME280;24370;51.986;4.666;2022-12-07T10:47:48;101827.53;;;14.73;47.49
38616;BME280;24370;51.986;4.666;2022-12-07T10:50:45;101822.66;;;15.73;45.83
38616;BME280;24370;51.986;4.666;2022-12-07T11:12:08;101795.25;;;15.87;44.96
38616;BME280;24370;51.986;4.666;2022-12-07T11:14:53;101794.47;;;15.78;44.78
38616;BME280;24370;51.986;4.666;2022-12-07T11:20:29;101786.44;;;15.86;44.44
38616;BME280;24370;51.986;4.666;2022-12-07T11:23:11;101784.63;;;15.32;46.05
38616;BME280;24370;51.986;4.666;2022-12-07T11:25:49;101775.34;;;15.06;45.70
38616;BME280;24370;51.986;4.666;2022-12-07T11:31:30;101773.00;;;14.83;47.60
38616;BME280;24370;51.986;4.666;2022-12-07T11:34:07;101770.13;;;15.03;45.52
38616;BME280;24370;51.986;4.666;2022-12-07T11:39:20;101764.50;;;15.86;44.60
38616;BME280;24370;51.986;4.666;2022-12-07T11:41:50;101761.16;;;15.74;44.60
38616;BME280;24370;51.986;4.666;2022-12-07T11:52:26;101756.88;;;15.66;43.23
38616;BME280;24370;51.986;4.666;2022-12-07T11:54:53;101754.72;;;15.36;42.77
38616;BME280;24370;51.986;4.666;2022-12-07T11:57:35;101753.06;;;14.65;44.19
38616;BME280;24370;51.986;4.666;2022-12-07T12:00:05;101768.09;;;14.54;45.01
38616;BME280;24370;51.986;4.666;2022-12-07T12:02:38;101750.28;;;14.78;44.81
38616;BME280;24370;51.986;4.666;2022-12-07T12:05:23;101761.84;;;13.76;46.84
38616;BME280;24370;51.986;4.666;2022-12-07T12:08:02;101763.06;;;13.25;48.34
38616;BME280;24370;51.986;4.666;2022-12-07T12:10:50;101768.72;;;12.28;51.76
38616;BME280;24370;51.986;4.666;2022-12-07T12:16:37;101766.81;;;12.75;53.17
38616;BME280;24370;51.986;4.666;2022-12-07T12:19:11;101756.41;;;12.56;52.83
38616;BME280;24370;51.986;4.666;2022-12-07T12:21:42;101758.19;;;12.42;53.54
38616;BME280;24370;51.986;4.666;2022-12-07T12:24:15;101752.72;;;12.99;52.57
38616;BME280;24370;51.986;4.666;2022-12-07T12:27:05;101748.44;;;12.82;53.88
38616;BME280;24370;51.986;4.666;2022-12-07T12:29:34;101756.50;;;12.28;53.68
38616;BME280;24370;51.986;4.666;2022-12-07T12:32:16;101753.69;;;12.81;51.32
38616;BME280;24370;51.986;4.666;2022-12-07T12:45:36;101720.78;;;14.48;45.41
38616;BME280;24370;51.986;4.666;2022-12-07T12:48:28;101704.81;;;14.66;44.97
38616;BME280;24370;51.986;4.666;2022-12-07T12:51:36;101706.75;;;14.49;44.77
38616;BME280;24370;51.986;4.666;2022-12-07T12:54:20;101701.09;;;14.83;45.10
38616;BME280;24370;51.986;4.666;2022-12-07T12:56:51;101697.34;;;14.99;43.77
38616;BME280;24370;51.986;4.666;2022-12-07T12:59:26;101696.28;;;15.13;44.03
38616;BME280;24370;51.986;4.666;2022-12-07T13:01:56;101694.13;;;15.36;44.19
38616;BME280;24370;51.986;4.666;2022-12-07T13:04:28;101693.06;;;15.50;43.55
38616;BME280;24370;51.986;4.666;2022-12-07T13:06:55;101689.50;;;14.26;45.02
38616;BME280;24370;51.986;4.666;2022-12-07T13:09:33;101681.81;;;14.81;44.68
38616;BME280;24370;51.986;4.666;2022-12-07T13:12:05;101686.28;;;12.92;47.31
38616;BME280;24370;51.986;4.666;2022-12-07T13:20:00;101682.81;;;15.31;44.96
38616;BME280;24370;51.986;4.666;2022-12-07T13:25:31;101684.22;;;14.95;44.71
38616;BME280;24370;51.986;4.666;2022-12-07T13:28:16;101694.91;;;14.14;47.12
38616;BME280;24370;51.986;4.666;2022-12-07T13:30:46;101698.47;;;14.06;46.80
38616;BME280;24370;51.986;4.666;2022-12-07T13:33:17;101688.41;;;13.63;47.79
38616;BME280;24370;51.986;4.666;2022-12-07T13:35:44;101670.19;;;14.30;46.63
38616;BME280;24370;51.986;4.666;2022-12-07T13:38:25;101669.25;;;13.52;48.33
38616;BME280;24370;51.986;4.666;2022-12-07T13:41:12;101667.19;;;13.82;48.50
38616;BME280;24370;51.986;4.666;2022-12-07T13:43:47;101660.13;;;14.60;46.07
38616;BME280;24370;51.986;4.666;2022-12-07T13:46:13;101661.19;;;14.47;46.94
38616;BME280;24370;51.986;4.666;2022-12-07T13:48:47;101657.34;;;14.01;47.50
38616;BME280;24370;51.986;4.666;2022-12-07T13:51:25;101649.38;;;15.36;45.31
38616;BME280;24370;51.986;4.666;2022-12-07T13:53:55;101640.41;;;14.92;45.89
38616;BME280;24370;51.986;4.666;2022-12-07T13:56:22;101644.50;;;15.12;43.75
38616;BME280;24370;51.986;4.666;2022-12-07T13:58:51;101649.63;;;15.19;44.42
38616;BME280;24370;51.986;4.666;2022-12-07T14:01:17;101645.69;;;14.92;43.65
38616;BME280;24370;51.986;4.666;2022-12-07T14:03:43;101647.09;;;15.65;41.86
38616;BME280;24370;51.986;4.666;2022-12-07T14:06:23;101640.38;;;14.28;44.07
38616;BME280;24370;51.986;4.666;2022-12-07T14:08:50;101642.47;;;15.29;42.87
38616;BME280;24370;51.986;4.666;2022-12-07T14:11:30;101633.28;;;16.42;41.54
38616;BME280;24370;51.986;4.666;2022-12-07T14:13:58;101642.78;;;14.47;43.83
38616;BME280;24370;51.986;4.666;2022-12-07T14:16:35;101624.78;;;15.34;42.61
38616;BME280;24370;51.986;4.666;2022-12-07T14:19:04;101621.72;;;15.59;42.49
38616;BME280;24370;51.986;4.666;2022-12-07T14:21:33;101627.91;;;15.58;41.88
38616;BME280;24370;51.986;4.666;2022-12-07T14:24:18;101627.84;;;14.49;44.83
38616;BME280;24370;51.986;4.666;2022-12-07T14:26:46;101631.97;;;14.71;43.54
38616;BME280;24370;51.986;4.666;2022-12-07T14:29:28;101618.97;;;15.15;43.37
38616;BME280;24370;51.986;4.666;2022-12-07T14:31:57;101616.28;;;15.20;43.60
38616;BME280;24370;51.986;4.666;2022-12-07T14:34:24;101617.50;;;15.50;42.97
38616;BME280;24370;51.986;4.666;2022-12-07T14:36:50;101611.44;;;15.93;41.65
38616;BME280;24370;51.986;4.666;2022-12-07T14:39:16;101614.63;;;16.09;41.18